sensor_id;sensor_type;location;lat;lon;timestamp;temperature;humidity
48998;DHT22;34807;51.456;7.244;2023-09-19T00:00:45;18.90;94.30
48998;DHT22;34807;51.456;7.244;2023-09-19T00:03:12;18.90;94.30
48998;DHT22;34807;51.456;7.244;2023-09-19T00:05:38;18.80;94.40
48998;DHT22;34807;51.456;7.244;2023-09-19T00:08:04;18.80;94.60
48998;DHT22;34807;51.456;7.244;2023-09-19T00:10:30;18.80;94.50
48998;DHT22;34807;51.456;7.244;2023-09-19T00:13:00;18.80;94.30
48998;DHT22;34807;51.456;7.244;2023-09-19T00:15:30;18.70;94.40
48998;DHT22;34807;51.456;7.244;2023-09-19T00:17:58;18.70;94.50
48998;DHT22;34807;51.456;7.244;2023-09-19T00:20:24;18.70;94.20
48998;DHT22;34807;51.456;7.244;2023-09-19T00:22:50;18.70;94.30
48998;DHT22;34807;51.456;7.244;2023-09-19T00:25:17;18.70;94.60
48998;DHT22;34807;51.456;7.244;2023-09-19T00:27:43;18.70;94.60
48998;DHT22;34807;51.456;7.244;2023-09-19T00:30:10;18.60;94.30
48998;DHT22;34807;51.456;7.244;2023-09-19T00:32:43;18.60;94.40
48998;DHT22;34807;51.456;7.244;2023-09-19T00:35:09;18.60;94.50
48998;DHT22;34807;51.456;7.244;2023-09-19T00:37:36;18.50;94.30
48998;DHT22;34807;51.456;7.244;2023-09-19T00:40:02;18.50;94.30
48998;DHT22;34807;51.456;7.244;2023-09-19T00:42:30;18.50;94.60
48998;DHT22;34807;51.456;7.244;2023-09-19T00:44:55;18.50;94.20
48998;DHT22;34807;51.456;7.244;2023-09-19T00:47:21;18.50;94.60
48998;DHT22;34807;51.456;7.244;2023-09-19T00:49:46;18.50;94.30
48998;DHT22;34807;51.456;7.244;2023-09-19T00:52:18;18.40;94.70
48998;DHT22;34807;51.456;7.244;2023-09-19T00:54:47;18.40;94.70
48998;DHT22;34807;51.456;7.244;2023-09-19T00:57:13;18.40;94.60
48998;DHT22;34807;51.456;7.244;2023-09-19T00:59:41;18.40;94.70
48998;DHT22;34807;51.456;7.244;2023-09-19T01:02:07;18.40;94.50
48998;DHT22;34807;51.456;7.244;2023-09-19T01:04:33;18.30;94.40
48998;DHT22;34807;51.456;7.244;2023-09-19T01:06:59;18.30;94.50
48998;DHT22;34807;51.456;7.244;2023-09-19T01:09:24;18.30;94.40
48998;DHT22;34807;51.456;7.244;2023-09-19T01:11:50;18.30;94.30
48998;DHT22;34807;51.456;7.244;2023-09-19T01:29:25;18.10;94.50
48998;DHT22;34807;51.456;7.244;2023-09-19T01:31:57;18.10;94.40
48998;DHT22;34807;51.456;7.244;2023-09-19T01:34:26;18.10;94.40
48998;DHT22;34807;51.456;7.244;2023-09-19T01:36:52;18.10;94.50
48998;DHT22;34807;51.456;7.244;2023-09-19T01:39:17;18.10;94.20
48998;DHT22;34807;51.456;7.244;2023-09-19T01:44:20;18.10;94.40
48998;DHT22;34807;51.456;7.244;2023-09-19T01:46:47;18.00;94.70
48998;DHT22;34807;51.456;7.244;2023-09-19T01:49:27;18.10;94.50
48998;DHT22;34807;51.456;7.244;2023-09-19T01:52:10;18.00;94.40
48998;DHT22;34807;51.456;7.244;2023-09-19T01:54:51;18.00;94.50
48998;DHT22;34807;51.456;7.244;2023-09-19T01:59:57;17.90;94.50
48998;DHT22;34807;51.456;7.244;2023-09-19T02:02:24;17.90;94.40
48998;DHT22;34807;51.456;7.244;2023-09-19T02:04:50;17.90;94.50
48998;DHT22;34807;51.456;7.244;2023-09-19T02:07:16;17.90;94.20
48998;DHT22;34807;51.456;7.244;2023-09-19T02:09:42;17.90;94.40
48998;DHT22;34807;51.456;7.244;2023-09-19T02:12:11;17.90;94.20
48998;DHT22;34807;51.456;7.244;2023-09-19T02:14:36;17.90;94.40
48998;DHT22;34807;51.456;7.244;2023-09-19T02:17:02;17.90;94.10
48998;DHT22;34807;51.456;7.244;2023-09-19T02:19:36;17.80;94.30
48998;DHT22;34807;51.456;7.244;2023-09-19T02:22:04;17.80;94.30
48998;DHT22;34807;51.456;7.244;2023-09-19T02:24:33;17.80;94.10
48998;DHT22;34807;51.456;7.244;2023-09-19T02:26:58;17.80;94.20
48998;DHT22;34807;51.456;7.244;2023-09-19T02:29:29;17.70;94.10
48998;DHT22;34807;51.456;7.244;2023-09-19T02:31:55;17.70;94.40
48998;DHT22;34807;51.456;7.244;2023-09-19T02:34:21;17.80;94.40
48998;DHT22;34807;51.456;7.244;2023-09-19T02:36:47;17.80;94.50
48998;DHT22;34807;51.456;7.244;2023-09-19T02:39:12;17.70;93.90
48998;DHT22;34807;51.456;7.244;2023-09-19T02:41:38;17.70;94.30
48998;DHT22;34807;51.456;7.244;2023-09-19T02:44:03;17.70;94.30
48998;DHT22;34807;51.456;7.244;2023-09-19T02:46:33;17.70;94.10
48998;DHT22;34807;51.456;7.244;2023-09-19T02:48:58;17.60;94.20
48998;DHT22;34807;51.456;7.244;2023-09-19T02:51:24;17.60;94.20
48998;DHT22;34807;51.456;7.244;2023-09-19T02:53:50;17.60;94.30
48998;DHT22;34807;51.456;7.244;2023-09-19T02:56:18;17.60;94.30
48998;DHT22;34807;51.456;7.244;2023-09-19T02:58:43;17.60;94.30
48998;DHT22;34807;51.456;7.244;2023-09-19T03:01:09;17.60;94.30
48998;DHT22;34807;51.456;7.244;2023-09-19T03:03:36;17.60;94.30
48998;DHT22;34807;51.456;7.244;2023-09-19T03:06:05;17.60;94.30
48998;DHT22;34807;51.456;7.244;2023-09-19T03:08:31;17.60;94.20
48998;DHT22;34807;51.456;7.244;2023-09-19T03:10:58;17.60;93.80
48998;DHT22;34807;51.456;7.244;2023-09-19T03:13:24;17.50;94.10
48998;DHT22;34807;51.456;7.244;2023-09-19T03:15:49;17.50;93.70
48998;DHT22;34807;51.456;7.244;2023-09-19T03:18:15;17.50;94.30
48998;DHT22;34807;51.456;7.244;2023-09-19T03:20:41;17.50;94.20
48998;DHT22;34807;51.456;7.244;2023-09-19T03:23:06;17.50;94.10
48998;DHT22;34807;51.456;7.244;2023-09-19T03:25:34;17.50;94.10
48998;DHT22;34807;51.456;7.244;2023-09-19T03:28:00;17.50;94.00
48998;DHT22;34807;51.456;7.244;2023-09-19T03:30:26;17.50;94.30
48998;DHT22;34807;51.456;7.244;2023-09-19T03:32:51;17.40;93.60
48998;DHT22;34807;51.456;7.244;2023-09-19T03:35:17;17.40;94.20
48998;DHT22;34807;51.456;7.244;2023-09-19T03:37:43;17.50;94.10
48998;DHT22;34807;51.456;7.244;2023-09-19T03:40:09;17.40;93.90
48998;DHT22;34807;51.456;7.244;2023-09-19T03:42:39;17.40;94.00
48998;DHT22;34807;51.456;7.244;2023-09-19T03:45:05;17.40;93.90
48998;DHT22;34807;51.456;7.244;2023-09-19T03:47:31;17.40;94.20
48998;DHT22;34807;51.456;7.244;2023-09-19T03:49:57;17.40;94.00
48998;DHT22;34807;51.456;7.244;2023-09-19T03:52:22;17.30;94.00
48998;DHT22;34807;51.456;7.244;2023-09-19T03:54:48;17.30;94.00
48998;DHT22;34807;51.456;7.244;2023-09-19T03:57:14;17.40;94.00
48998;DHT22;34807;51.456;7.244;2023-09-19T03:59:42;17.30;93.90
48998;DHT22;34807;51.456;7.244;2023-09-19T04:02:11;17.30;94.20
48998;DHT22;34807;51.456;7.244;2023-09-19T04:04:56;17.30;93.90
48998;DHT22;34807;51.456;7.244;2023-09-19T04:07:21;17.30;94.10
48998;DHT22;34807;51.456;7.244;2023-09-19T04:09:48;17.20;94.10
48998;DHT22;34807;51.456;7.244;2023-09-19T04:12:14;17.30;94.00
48998;DHT22;34807;51.456;7.244;2023-09-19T04:14:42;17.20;93.50
48998;DHT22;34807;51.456;7.244;2023-09-19T04:17:07;17.30;94.10
48998;DHT22;34807;51.456;7.244;2023-09-19T04:19:33;17.20;93.90
48998;DHT22;34807;51.456;7.244;2023-09-19T04:21:58;17.20;94.00
48998;DHT22;34807;51.456;7.244;2023-09-19T04:24:24;17.20;94.00
48998;DHT22;34807;51.456;7.244;2023-09-19T04:26:49;17.20;94.00
48998;DHT22;34807;51.456;7.244;2023-09-19T04:29:15;17.20;94.00
48998;DHT22;34807;51.456;7.244;2023-09-19T04:31:41;17.20;94.00
48998;DHT22;34807;51.456;7.244;2023-09-19T04:34:09;17.20;94.00
48998;DHT22;34807;51.456;7.244;2023-09-19T04:36:35;17.10;94.00
48998;DHT22;34807;51.456;7.244;2023-09-19T04:39:02;17.10;94.10
48998;DHT22;34807;51.456;7.244;2023-09-19T04:41:30;17.10;93.60
48998;DHT22;34807;51.456;7.244;2023-09-19T04:43:55;17.10;94.10
48998;DHT22;34807;51.456;7.244;2023-09-19T04:46:21;17.10;94.00
48998;DHT22;34807;51.456;7.244;2023-09-19T04:48:47;17.10;93.70
48998;DHT22;34807;51.456;7.244;2023-09-19T04:51:12;17.10;94.00
48998;DHT22;34807;51.456;7.244;2023-09-19T04:53:38;17.10;93.70
48998;DHT22;34807;51.456;7.244;2023-09-19T04:56:04;17.00;93.90
48998;DHT22;34807;51.456;7.244;2023-09-19T04:58:33;17.00;94.20
48998;DHT22;34807;51.456;7.244;2023-09-19T05:00:59;17.00;94.00
48998;DHT22;34807;51.456;7.244;2023-09-19T05:03:24;17.00;93.90
48998;DHT22;34807;51.456;7.244;2023-09-19T05:05:50;17.00;93.90
48998;DHT22;34807;51.456;7.244;2023-09-19T05:08:15;17.00;94.00
48998;DHT22;34807;51.456;7.244;2023-09-19T05:10:41;17.00;94.00
48998;DHT22;34807;51.456;7.244;2023-09-19T05:13:06;17.00;93.90
48998;DHT22;34807;51.456;7.244;2023-09-19T05:15:35;17.00;93.90
48998;DHT22;34807;51.456;7.244;2023-09-19T05:18:01;17.00;94.00
48998;DHT22;34807;51.456;7.244;2023-09-19T05:20:26;17.00;93.90
48998;DHT22;34807;51.456;7.244;2023-09-19T05:23:02;17.00;93.80
48998;DHT22;34807;51.456;7.244;2023-09-19T05:25:29;16.90;93.60
48998;DHT22;34807;51.456;7.244;2023-09-19T05:28:00;16.90;93.90
48998;DHT22;34807;51.456;7.244;2023-09-19T05:30:28;16.90;93.80
48998;DHT22;34807;51.456;7.244;2023-09-19T05:32:54;16.90;93.50
48998;DHT22;34807;51.456;7.244;2023-09-19T05:35:21;16.90;93.90
48998;DHT22;34807;51.456;7.244;2023-09-19T05:37:47;16.90;93.90
48998;DHT22;34807;51.456;7.244;2023-09-19T05:40:16;16.90;94.00
48998;DHT22;34807;51.456;7.244;2023-09-19T05:42:42;16.90;93.70
48998;DHT22;34807;51.456;7.244;2023-09-19T05:45:09;16.90;93.60
48998;DHT22;34807;51.456;7.244;2023-09-19T05:47:40;16.90;93.90
48998;DHT22;34807;51.456;7.244;2023-09-19T05:50:11;16.90;93.70
48998;DHT22;34807;51.456;7.244;2023-09-19T05:52:37;16.90;93.80
48998;DHT22;34807;51.456;7.244;2023-09-19T05:55:05;16.80;93.90
48998;DHT22;34807;51.456;7.244;2023-09-19T05:57:35;16.80;93.80
48998;DHT22;34807;51.456;7.244;2023-09-19T06:00:01;16.90;93.80
48998;DHT22;34807;51.456;7.244;2023-09-19T06:02:26;16.90;93.80
48998;DHT22;34807;51.456;7.244;2023-09-19T06:04:54;16.90;93.80
48998;DHT22;34807;51.456;7.244;2023-09-19T06:07:21;16.80;93.80
48998;DHT22;34807;51.456;7.244;2023-09-19T06:09:47;16.90;93.60
48998;DHT22;34807;51.456;7.244;2023-09-19T06:12:12;16.90;93.90
48998;DHT22;34807;51.456;7.244;2023-09-19T06:14:41;16.80;93.70
48998;DHT22;34807;51.456;7.244;2023-09-19T06:17:06;16.80;93.30
48998;DHT22;34807;51.456;7.244;2023-09-19T06:19:32;16.90;93.80
48998;DHT22;34807;51.456;7.244;2023-09-19T06:21:58;16.90;93.50
48998;DHT22;34807;51.456;7.244;2023-09-19T06:24:24;16.80;93.80
48998;DHT22;34807;51.456;7.244;2023-09-19T06:26:51;16.90;93.70
48998;DHT22;34807;51.456;7.244;2023-09-19T06:29:17;16.90;93.60
48998;DHT22;34807;51.456;7.244;2023-09-19T06:31:43;16.90;93.70
48998;DHT22;34807;51.456;7.244;2023-09-19T06:34:10;16.90;93.70
48998;DHT22;34807;51.456;7.244;2023-09-19T06:36:35;16.90;93.70
48998;DHT22;34807;51.456;7.244;2023-09-19T06:39:01;16.90;93.70
48998;DHT22;34807;51.456;7.244;2023-09-19T06:41:29;16.90;93.70
48998;DHT22;34807;51.456;7.244;2023-09-19T06:43:55;16.90;93.60
48998;DHT22;34807;51.456;7.244;2023-09-19T06:46:21;16.90;93.50
48998;DHT22;34807;51.456;7.244;2023-09-19T06:48:46;16.90;93.70
48998;DHT22;34807;51.456;7.244;2023-09-19T06:51:13;17.00;93.60
48998;DHT22;34807;51.456;7.244;2023-09-19T06:53:41;17.00;93.50
48998;DHT22;34807;51.456;7.244;2023-09-19T06:56:07;17.00;93.50
48998;DHT22;34807;51.456;7.244;2023-09-19T06:58:32;17.00;93.70
48998;DHT22;34807;51.456;7.244;2023-09-19T07:00:58;17.00;93.70
48998;DHT22;34807;51.456;7.244;2023-09-19T07:03:23;17.00;93.60
48998;DHT22;34807;51.456;7.244;2023-09-19T07:05:52;17.00;93.50
48998;DHT22;34807;51.456;7.244;2023-09-19T07:08:18;17.10;93.60
48998;DHT22;34807;51.456;7.244;2023-09-19T07:10:44;17.00;93.40
48998;DHT22;34807;51.456;7.244;2023-09-19T07:13:19;17.00;93.40
48998;DHT22;34807;51.456;7.244;2023-09-19T07:15:45;17.10;93.60
48998;DHT22;34807;51.456;7.244;2023-09-19T07:18:16;17.10;93.50
48998;DHT22;34807;51.456;7.244;2023-09-19T07:20:44;17.10;93.50
48998;DHT22;34807;51.456;7.244;2023-09-19T07:23:20;17.10;93.50
48998;DHT22;34807;51.456;7.244;2023-09-19T07:25:47;17.10;93.30
48998;DHT22;34807;51.456;7.244;2023-09-19T07:28:14;17.10;93.50
48998;DHT22;34807;51.456;7.244;2023-09-19T07:30:39;17.10;93.40
48998;DHT22;34807;51.456;7.244;2023-09-19T07:33:06;17.20;93.30
48998;DHT22;34807;51.456;7.244;2023-09-19T07:35:32;17.10;93.40
48998;DHT22;34807;51.456;7.244;2023-09-19T07:37:58;17.20;93.50
48998;DHT22;34807;51.456;7.244;2023-09-19T07:40:26;17.20;93.40
48998;DHT22;34807;51.456;7.244;2023-09-19T07:42:54;17.20;93.40
48998;DHT22;34807;51.456;7.244;2023-09-19T07:45:20;17.20;93.40
48998;DHT22;34807;51.456;7.244;2023-09-19T07:47:46;17.20;93.40
48998;DHT22;34807;51.456;7.244;2023-09-19T07:50:15;17.20;93.30
48998;DHT22;34807;51.456;7.244;2023-09-19T07:52:41;17.20;93.40
48998;DHT22;34807;51.456;7.244;2023-09-19T07:55:08;17.30;93.20
48998;DHT22;34807;51.456;7.244;2023-09-19T07:57:37;17.30;93.30
48998;DHT22;34807;51.456;7.244;2023-09-19T08:00:03;17.30;93.30
48998;DHT22;34807;51.456;7.244;2023-09-19T08:02:36;17.30;93.30
48998;DHT22;34807;51.456;7.244;2023-09-19T08:05:03;17.40;93.20
48998;DHT22;34807;51.456;7.244;2023-09-19T08:07:34;17.30;93.30
48998;DHT22;34807;51.456;7.244;2023-09-19T08:10:02;17.40;93.30
48998;DHT22;34807;51.456;7.244;2023-09-19T08:12:27;17.40;93.10
48998;DHT22;34807;51.456;7.244;2023-09-19T08:14:53;17.40;93.10
48998;DHT22;34807;51.456;7.244;2023-09-19T08:17:20;17.40;93.20
48998;DHT22;34807;51.456;7.244;2023-09-19T08:19:47;17.40;93.10
48998;DHT22;34807;51.456;7.244;2023-09-19T08:22:14;17.50;93.10
48998;DHT22;34807;51.456;7.244;2023-09-19T08:24:42;17.40;93.20
48998;DHT22;34807;51.456;7.244;2023-09-19T08:27:08;17.50;93.10
48998;DHT22;34807;51.456;7.244;2023-09-19T08:29:35;17.50;93.20
48998;DHT22;34807;51.456;7.244;2023-09-19T08:32:01;17.60;93.00
48998;DHT22;34807;51.456;7.244;2023-09-19T08:34:26;17.60;93.10
48998;DHT22;34807;51.456;7.244;2023-09-19T08:36:52;17.50;92.90
48998;DHT22;34807;51.456;7.244;2023-09-19T08:39:22;17.50;93.10
48998;DHT22;34807;51.456;7.244;2023-09-19T08:41:47;17.50;93.10
48998;DHT22;34807;51.456;7.244;2023-09-19T08:44:13;17.60;93.20
48998;DHT22;34807;51.456;7.244;2023-09-19T08:46:40;17.60;92.90
48998;DHT22;34807;51.456;7.244;2023-09-19T08:49:10;17.70;92.90
48998;DHT22;34807;51.456;7.244;2023-09-19T08:51:42;17.70;92.80
48998;DHT22;34807;51.456;7.244;2023-09-19T08:54:20;17.70;92.90
48998;DHT22;34807;51.456;7.244;2023-09-19T08:56:47;17.80;92.90
48998;DHT22;34807;51.456;7.244;2023-09-19T08:59:13;17.80;92.90
48998;DHT22;34807;51.456;7.244;2023-09-19T09:01:39;17.90;92.60
48998;DHT22;34807;51.456;7.244;2023-09-19T09:04:09;17.90;92.60
48998;DHT22;34807;51.456;7.244;2023-09-19T09:06:38;17.90;92.80
48998;DHT22;34807;51.456;7.244;2023-09-19T09:09:04;17.90;92.70
48998;DHT22;34807;51.456;7.244;2023-09-19T09:11:33;18.00;92.70
48998;DHT22;34807;51.456;7.244;2023-09-19T09:13:59;18.00;92.60
48998;DHT22;34807;51.456;7.244;2023-09-19T09:16:25;18.00;92.50
48998;DHT22;34807;51.456;7.244;2023-09-19T09:18:51;18.00;92.60
48998;DHT22;34807;51.456;7.244;2023-09-19T09:21:18;18.10;92.50
48998;DHT22;34807;51.456;7.244;2023-09-19T09:23:43;18.10;92.60
48998;DHT22;34807;51.456;7.244;2023-09-19T09:26:09;18.00;92.30
48998;DHT22;34807;51.456;7.244;2023-09-19T09:28:34;18.10;92.50
48998;DHT22;34807;51.456;7.244;2023-09-19T09:31:04;18.20;92.30
48998;DHT22;34807;51.456;7.244;2023-09-19T09:33:34;18.20;92.50
48998;DHT22;34807;51.456;7.244;2023-09-19T09:36:01;18.20;92.30
48998;DHT22;34807;51.456;7.244;2023-09-19T09:38:42;18.20;92.30
48998;DHT22;34807;51.456;7.244;2023-09-19T09:41:09;18.20;92.30
48998;DHT22;34807;51.456;7.244;2023-09-19T09:43:36;18.30;92.30
48998;DHT22;34807;51.456;7.244;2023-09-19T09:51:39;18.30;91.90
48998;DHT22;34807;51.456;7.244;2023-09-19T09:54:17;18.40;91.80
48998;DHT22;34807;51.456;7.244;2023-09-19T09:56:54;18.30;91.80
48998;DHT22;34807;51.456;7.244;2023-09-19T09:59:22;18.40;91.90
48998;DHT22;34807;51.456;7.244;2023-09-19T10:01:52;18.30;91.50
48998;DHT22;34807;51.456;7.244;2023-09-19T10:04:28;18.40;92.00
48998;DHT22;34807;51.456;7.244;2023-09-19T10:07:02;18.40;91.60
48998;DHT22;34807;51.456;7.244;2023-09-19T10:09:30;18.40;92.00
48998;DHT22;34807;51.456;7.244;2023-09-19T10:12:09;18.50;91.90
48998;DHT22;34807;51.456;7.244;2023-09-19T10:14:37;18.50;91.90
48998;DHT22;34807;51.456;7.244;2023-09-19T10:17:06;18.50;91.80
48998;DHT22;34807;51.456;7.244;2023-09-19T10:22:16;18.60;91.40
48998;DHT22;34807;51.456;7.244;2023-09-19T10:24:41;18.60;91.70
48998;DHT22;34807;51.456;7.244;2023-09-19T10:27:10;18.60;91.70
48998;DHT22;34807;51.456;7.244;2023-09-19T10:29:36;18.60;91.40
48998;DHT22;34807;51.456;7.244;2023-09-19T10:32:04;18.50;91.40
48998;DHT22;34807;51.456;7.244;2023-09-19T10:34:32;18.60;91.30
48998;DHT22;34807;51.456;7.244;2023-09-19T10:37:00;18.60;91.80
48998;DHT22;34807;51.456;7.244;2023-09-19T10:39:31;18.70;91.50
48998;DHT22;34807;51.456;7.244;2023-09-19T10:41:57;18.80;91.20
48998;DHT22;34807;51.456;7.244;2023-09-19T10:44:28;18.70;91.50
48998;DHT22;34807;51.456;7.244;2023-09-19T10:46:54;18.80;91.30
48998;DHT22;34807;51.456;7.244;2023-09-19T10:49:21;18.70;91.20
48998;DHT22;34807;51.456;7.244;2023-09-19T10:51:47;18.80;91.60
48998;DHT22;34807;51.456;7.244;2023-09-19T10:54:16;18.90;91.00
48998;DHT22;34807;51.456;7.244;2023-09-19T10:56:44;18.90;91.00
48998;DHT22;34807;51.456;7.244;2023-09-19T10:59:20;19.00;91.30
48998;DHT22;34807;51.456;7.244;2023-09-19T11:01:47;19.00;91.20
48998;DHT22;34807;51.456;7.244;2023-09-19T11:12:58;19.10;90.90
48998;DHT22;34807;51.456;7.244;2023-09-19T11:15:01;19.10;90.90
48998;DHT22;34807;51.456;7.244;2023-09-19T11:30:40;19.40;91.10
48998;DHT22;34807;51.456;7.244;2023-09-19T11:41:49;19.50;90.70
48998;DHT22;34807;51.456;7.244;2023-09-19T11:46:31;19.50;90.60
48998;DHT22;34807;51.456;7.244;2023-09-19T11:49:07;19.50;90.70
48998;DHT22;34807;51.456;7.244;2023-09-19T11:51:40;19.60;90.80
48998;DHT22;34807;51.456;7.244;2023-09-19T11:54:10;19.70;90.10
48998;DHT22;34807;51.456;7.244;2023-09-19T11:56:38;19.70;90.30
48998;DHT22;34807;51.456;7.244;2023-09-19T11:59:06;19.70;90.00
48998;DHT22;34807;51.456;7.244;2023-09-19T12:01:33;19.80;90.10
48998;DHT22;34807;51.456;7.244;2023-09-19T12:04:01;19.80;90.30
48998;DHT22;34807;51.456;7.244;2023-09-19T12:06:28;19.80;90.20
48998;DHT22;34807;51.456;7.244;2023-09-19T12:08:55;19.90;90.20
48998;DHT22;34807;51.456;7.244;2023-09-19T12:11:21;19.90;89.90
48998;DHT22;34807;51.456;7.244;2023-09-19T12:13:48;20.00;89.60
48998;DHT22;34807;51.456;7.244;2023-09-19T12:16:19;20.00;89.70
48998;DHT22;34807;51.456;7.244;2023-09-19T12:18:47;20.10;89.50
48998;DHT22;34807;51.456;7.244;2023-09-19T12:26:24;20.10;89.70
48998;DHT22;34807;51.456;7.244;2023-09-19T12:28:49;20.10;89.40
48998;DHT22;34807;51.456;7.244;2023-09-19T12:31:18;20.10;89.80
48998;DHT22;34807;51.456;7.244;2023-09-19T12:33:47;20.10;89.80
48998;DHT22;34807;51.456;7.244;2023-09-19T12:36:22;20.20;90.00
48998;DHT22;34807;51.456;7.244;2023-09-19T12:38:58;20.20;90.10
48998;DHT22;34807;51.456;7.244;2023-09-19T12:41:34;20.20;89.30
48998;DHT22;34807;51.456;7.244;2023-09-19T12:43:59;20.30;88.90
48998;DHT22;34807;51.456;7.244;2023-09-19T12:46:25;20.30;89.30
48998;DHT22;34807;51.456;7.244;2023-09-19T12:49:54;20.40;87.50
48998;DHT22;34807;51.456;7.244;2023-09-19T12:51:37;20.40;88.50
48998;DHT22;34807;51.456;7.244;2023-09-19T12:54:03;20.40;89.50
48998;DHT22;34807;51.456;7.244;2023-09-19T12:56:30;20.50;88.60
48998;DHT22;34807;51.456;7.244;2023-09-19T12:59:04;20.60;88.20
48998;DHT22;34807;51.456;7.244;2023-09-19T13:01:32;20.60;88.20
48998;DHT22;34807;51.456;7.244;2023-09-19T13:04:10;20.60;87.30
48998;DHT22;34807;51.456;7.244;2023-09-19T13:06:37;20.70;88.00
48998;DHT22;34807;51.456;7.244;2023-09-19T13:09:11;20.70;86.60
48998;DHT22;34807;51.456;7.244;2023-09-19T13:11:37;20.80;88.50
48998;DHT22;34807;51.456;7.244;2023-09-19T13:16:54;20.90;88.00
48998;DHT22;34807;51.456;7.244;2023-09-19T13:19:37;20.90;89.90
48998;DHT22;34807;51.456;7.244;2023-09-19T13:22:05;20.90;87.90
48998;DHT22;34807;51.456;7.244;2023-09-19T13:24:31;21.00;86.40
48998;DHT22;34807;51.456;7.244;2023-09-19T13:26:58;21.00;88.90
48998;DHT22;34807;51.456;7.244;2023-09-19T13:29:25;21.00;86.70
48998;DHT22;34807;51.456;7.244;2023-09-19T13:31:51;21.00;88.80
48998;DHT22;34807;51.456;7.244;2023-09-19T13:34:22;21.00;87.60
48998;DHT22;34807;51.456;7.244;2023-09-19T13:36:48;21.10;88.50
48998;DHT22;34807;51.456;7.244;2023-09-19T13:39:14;21.10;89.70
48998;DHT22;34807;51.456;7.244;2023-09-19T13:41:49;21.10;89.70
48998;DHT22;34807;51.456;7.244;2023-09-19T13:44:15;21.10;88.40
48998;DHT22;34807;51.456;7.244;2023-09-19T13:46:42;21.10;88.40
48998;DHT22;34807;51.456;7.244;2023-09-19T13:49:10;21.20;87.30
48998;DHT22;34807;51.456;7.244;2023-09-19T13:51:36;21.20;87.10
48998;DHT22;34807;51.456;7.244;2023-09-19T13:54:02;21.20;88.30
48998;DHT22;34807;51.456;7.244;2023-09-19T13:56:28;21.30;87.60
48998;DHT22;34807;51.456;7.244;2023-09-19T13:58:54;21.30;86.50
48998;DHT22;34807;51.456;7.244;2023-09-19T14:01:19;21.30;87.30
48998;DHT22;34807;51.456;7.244;2023-09-19T14:03:45;21.30;86.10
48998;DHT22;34807;51.456;7.244;2023-09-19T14:06:15;21.30;85.60
48998;DHT22;34807;51.456;7.244;2023-09-19T14:08:41;21.30;86.00
48998;DHT22;34807;51.456;7.244;2023-09-19T14:11:07;21.30;87.40
48998;DHT22;34807;51.456;7.244;2023-09-19T14:13:32;21.30;86.80
48998;DHT22;34807;51.456;7.244;2023-09-19T14:16:02;21.30;87.50
48998;DHT22;34807;51.456;7.244;2023-09-19T14:18:29;21.20;86.80
48998;DHT22;34807;51.456;7.244;2023-09-19T14:20:55;21.30;86.70
48998;DHT22;34807;51.456;7.244;2023-09-19T14:23:20;21.30;86.30
48998;DHT22;34807;51.456;7.244;2023-09-19T14:25:46;21.20;86.60
48998;DHT22;34807;51.456;7.244;2023-09-19T14:28:11;21.20;86.60
48998;DHT22;34807;51.456;7.244;2023-09-19T14:30:37;21.20;86.50
48998;DHT22;34807;51.456;7.244;2023-09-19T14:33:04;21.20;86.20
48998;DHT22;34807;51.456;7.244;2023-09-19T14:35:30;21.20;86.90
48998;DHT22;34807;51.456;7.244;2023-09-19T14:37:55;21.10;86.80
48998;DHT22;34807;51.456;7.244;2023-09-19T14:40:21;21.10;87.40
48998;DHT22;34807;51.456;7.244;2023-09-19T14:42:47;21.10;87.20
48998;DHT22;34807;51.456;7.244;2023-09-19T14:45:13;21.10;87.00
48998;DHT22;34807;51.456;7.244;2023-09-19T14:47:43;21.00;86.30
48998;DHT22;34807;51.456;7.244;2023-09-19T14:50:09;21.00;86.80
48998;DHT22;34807;51.456;7.244;2023-09-19T14:52:35;21.00;87.30
48998;DHT22;34807;51.456;7.244;2023-09-19T14:55:01;20.90;87.00
48998;DHT22;34807;51.456;7.244;2023-09-19T14:57:27;21.00;87.80
48998;DHT22;34807;51.456;7.244;2023-09-19T14:59:52;20.90;87.40
48998;DHT22;34807;51.456;7.244;2023-09-19T15:02:18;21.00;86.80
48998;DHT22;34807;51.456;7.244;2023-09-19T15:04:44;20.90;87.30
48998;DHT22;34807;51.456;7.244;2023-09-19T15:07:12;20.90;87.40
48998;DHT22;34807;51.456;7.244;2023-09-19T15:09:37;20.90;87.50
48998;DHT22;34807;51.456;7.244;2023-09-19T15:12:03;20.80;87.50
48998;DHT22;34807;51.456;7.244;2023-09-19T15:14:29;20.80;87.10
48998;DHT22;34807;51.456;7.244;2023-09-19T15:16:57;20.80;86.80
48998;DHT22;34807;51.456;7.244;2023-09-19T15:19:22;20.80;87.60
48998;DHT22;34807;51.456;7.244;2023-09-19T15:21:48;20.80;87.80
48998;DHT22;34807;51.456;7.244;2023-09-19T15:24:14;20.80;87.50
48998;DHT22;34807;51.456;7.244;2023-09-19T15:26:40;20.70;87.80
48998;DHT22;34807;51.456;7.244;2023-09-19T15:29:08;20.70;87.70
48998;DHT22;34807;51.456;7.244;2023-09-19T15:31:34;20.60;88.20
48998;DHT22;34807;51.456;7.244;2023-09-19T15:34:02;20.60;88.00
48998;DHT22;34807;51.456;7.244;2023-09-19T15:36:27;20.60;86.10
48998;DHT22;34807;51.456;7.244;2023-09-19T15:39:00;20.60;87.90
48998;DHT22;34807;51.456;7.244;2023-09-19T15:41:27;20.50;87.50
48998;DHT22;34807;51.456;7.244;2023-09-19T15:43:53;20.50;88.00
48998;DHT22;34807;51.456;7.244;2023-09-19T15:46:19;20.50;88.00
48998;DHT22;34807;51.456;7.244;2023-09-19T15:48:45;20.50;88.00
48998;DHT22;34807;51.456;7.244;2023-09-19T15:51:11;20.40;87.30
48998;DHT22;34807;51.456;7.244;2023-09-19T15:53:43;20.40;87.00
48998;DHT22;34807;51.456;7.244;2023-09-19T15:56:10;20.40;87.60
48998;DHT22;34807;51.456;7.244;2023-09-19T15:58:55;20.40;88.40
48998;DHT22;34807;51.456;7.244;2023-09-19T16:01:21;20.50;88.00
48998;DHT22;34807;51.456;7.244;2023-09-19T16:03:47;20.60;87.60
48998;DHT22;34807;51.456;7.244;2023-09-19T16:06:14;20.60;87.60
48998;DHT22;34807;51.456;7.244;2023-09-19T16:08:40;20.70;86.80
48998;DHT22;34807;51.456;7.244;2023-09-19T16:11:06;20.80;85.70
48998;DHT22;34807;51.456;7.244;2023-09-19T16:13:32;20.80;87.20
48998;DHT22;34807;51.456;7.244;2023-09-19T16:15:58;20.90;87.20
48998;DHT22;34807;51.456;7.244;2023-09-19T16:18:24;20.80;85.90
48998;DHT22;34807;51.456;7.244;2023-09-19T16:20:49;20.80;86.20
48998;DHT22;34807;51.456;7.244;2023-09-19T16:23:15;20.80;85.90
48998;DHT22;34807;51.456;7.244;2023-09-19T16:25:41;20.70;87.30
48998;DHT22;34807;51.456;7.244;2023-09-19T16:28:06;20.60;85.70
48998;DHT22;34807;51.456;7.244;2023-09-19T16:30:32;20.60;86.40
48998;DHT22;34807;51.456;7.244;2023-09-19T16:32:59;20.50;87.40
48998;DHT22;34807;51.456;7.244;2023-09-19T16:35:25;20.40;85.70
48998;DHT22;34807;51.456;7.244;2023-09-19T16:37:50;20.40;86.90
48998;DHT22;34807;51.456;7.244;2023-09-19T16:40:16;20.40;86.60